sensor_id;sensor_type;location;lat;lon;timestamp;temperature;humidity
23231;DHT22;11784;49.818;8.632;2023-09-19T00:02:02;21.40;88.80
23231;DHT22;11784;49.818;8.632;2023-09-19T00:04:32;21.40;89.10
23231;DHT22;11784;49.818;8.632;2023-09-19T00:06:58;21.40;89.10
23231;DHT22;11784;49.818;8.632;2023-09-19T00:09:24;21.40;89.40
23231;DHT22;11784;49.818;8.632;2023-09-19T00:11:53;21.30;89.70
23231;DHT22;11784;49.818;8.632;2023-09-19T00:14:19;21.30;89.90
23231;DHT22;11784;49.818;8.632;2023-09-19T00:16:44;21.40;89.80
23231;DHT22;11784;49.818;8.632;2023-09-19T00:19:12;21.40;90.00
23231;DHT22;11784;49.818;8.632;2023-09-19T00:21:39;21.40;89.70
23231;DHT22;11784;49.818;8.632;2023-09-19T00:24:06;21.40;89.80
23231;DHT22;11784;49.818;8.632;2023-09-19T00:26:32;21.40;89.70
23231;DHT22;11784;49.818;8.632;2023-09-19T00:28:59;21.40;89.70
23231;DHT22;11784;49.818;8.632;2023-09-19T00:31:30;21.40;89.50
23231;DHT22;11784;49.818;8.632;2023-09-19T00:33:55;21.40;89.60
23231;DHT22;11784;49.818;8.632;2023-09-19T00:36:25;21.40;89.90
23231;DHT22;11784;49.818;8.632;2023-09-19T00:38:50;21.40;90.00
23231;DHT22;11784;49.818;8.632;2023-09-19T00:41:16;21.40;90.00
23231;DHT22;11784;49.818;8.632;2023-09-19T00:43:41;21.40;90.00
23231;DHT22;11784;49.818;8.632;2023-09-19T00:46:07;21.40;89.90
23231;DHT22;11784;49.818;8.632;2023-09-19T00:48:42;21.40;90.00
23231;DHT22;11784;49.818;8.632;2023-09-19T00:51:09;21.40;90.10
23231;DHT22;11784;49.818;8.632;2023-09-19T00:53:35;21.40;90.00
23231;DHT22;11784;49.818;8.632;2023-09-19T00:56:03;21.40;90.00
23231;DHT22;11784;49.818;8.632;2023-09-19T00:58:31;21.40;90.10
23231;DHT22;11784;49.818;8.632;2023-09-19T01:00:59;21.40;90.10
23231;DHT22;11784;49.818;8.632;2023-09-19T01:03:24;21.40;90.10
23231;DHT22;11784;49.818;8.632;2023-09-19T01:05:50;21.30;90.00
23231;DHT22;11784;49.818;8.632;2023-09-19T01:08:16;21.30;90.10
23231;DHT22;11784;49.818;8.632;2023-09-19T01:10:51;21.30;90.20
23231;DHT22;11784;49.818;8.632;2023-09-19T01:13:35;21.30;90.20
23231;DHT22;11784;49.818;8.632;2023-09-19T01:16:32;21.30;90.20
23231;DHT22;11784;49.818;8.632;2023-09-19T01:22:00;21.30;90.50
23231;DHT22;11784;49.818;8.632;2023-09-19T01:28:00;21.30;90.40
23231;DHT22;11784;49.818;8.632;2023-09-19T01:30:32;21.30;90.40
23231;DHT22;11784;49.818;8.632;2023-09-19T01:33:00;21.30;90.50
23231;DHT22;11784;49.818;8.632;2023-09-19T01:35:25;21.30;90.40
23231;DHT22;11784;49.818;8.632;2023-09-19T01:37:51;21.30;90.50
23231;DHT22;11784;49.818;8.632;2023-09-19T01:40:20;21.30;90.60
23231;DHT22;11784;49.818;8.632;2023-09-19T01:46:12;21.30;90.70
23231;DHT22;11784;49.818;8.632;2023-09-19T01:48:58;21.30;90.70
23231;DHT22;11784;49.818;8.632;2023-09-19T01:51:53;21.30;90.80
23231;DHT22;11784;49.818;8.632;2023-09-19T01:54:27;21.30;90.80
23231;DHT22;11784;49.818;8.632;2023-09-19T01:57:28;21.30;90.80
23231;DHT22;11784;49.818;8.632;2023-09-19T02:00:02;21.20;90.80
23231;DHT22;11784;49.818;8.632;2023-09-19T02:02:35;21.20;91.00
23231;DHT22;11784;49.818;8.632;2023-09-19T02:05:02;21.20;91.00
23231;DHT22;11784;49.818;8.632;2023-09-19T02:07:29;21.10;91.10
23231;DHT22;11784;49.818;8.632;2023-09-19T02:09:57;21.10;91.20
23231;DHT22;11784;49.818;8.632;2023-09-19T02:12:24;21.10;91.30
23231;DHT22;11784;49.818;8.632;2023-09-19T02:14:49;21.10;91.40
23231;DHT22;11784;49.818;8.632;2023-09-19T02:17:15;21.10;91.50
23231;DHT22;11784;49.818;8.632;2023-09-19T02:19:41;21.10;91.40
23231;DHT22;11784;49.818;8.632;2023-09-19T02:22:07;21.20;91.40
23231;DHT22;11784;49.818;8.632;2023-09-19T02:24:38;21.10;91.40
23231;DHT22;11784;49.818;8.632;2023-09-19T02:27:04;21.10;91.40
23231;DHT22;11784;49.818;8.632;2023-09-19T02:29:30;21.10;91.60
23231;DHT22;11784;49.818;8.632;2023-09-19T02:31:56;21.10;91.50
23231;DHT22;11784;49.818;8.632;2023-09-19T02:34:22;21.10;91.50
23231;DHT22;11784;49.818;8.632;2023-09-19T02:36:48;21.10;91.60
23231;DHT22;11784;49.818;8.632;2023-09-19T02:39:13;21.10;91.50
23231;DHT22;11784;49.818;8.632;2023-09-19T02:41:39;21.10;91.50
23231;DHT22;11784;49.818;8.632;2023-09-19T02:44:07;21.10;92.00
23231;DHT22;11784;49.818;8.632;2023-09-19T02:46:35;21.10;91.60
23231;DHT22;11784;49.818;8.632;2023-09-19T02:49:02;21.10;91.60
23231;DHT22;11784;49.818;8.632;2023-09-19T02:51:30;21.10;91.70
23231;DHT22;11784;49.818;8.632;2023-09-19T02:53:56;21.10;91.70
23231;DHT22;11784;49.818;8.632;2023-09-19T02:56:21;21.10;91.60
23231;DHT22;11784;49.818;8.632;2023-09-19T02:58:48;21.10;91.60
23231;DHT22;11784;49.818;8.632;2023-09-19T03:01:14;21.10;91.70
23231;DHT22;11784;49.818;8.632;2023-09-19T03:03:40;21.10;91.60
23231;DHT22;11784;49.818;8.632;2023-09-19T03:06:06;21.10;91.60
23231;DHT22;11784;49.818;8.632;2023-09-19T03:08:34;21.10;91.60
23231;DHT22;11784;49.818;8.632;2023-09-19T03:11:03;21.10;91.70
23231;DHT22;11784;49.818;8.632;2023-09-19T03:13:30;21.00;91.70
23231;DHT22;11784;49.818;8.632;2023-09-19T03:15:56;21.00;91.80
23231;DHT22;11784;49.818;8.632;2023-09-19T03:18:24;21.00;91.70
23231;DHT22;11784;49.818;8.632;2023-09-19T03:20:57;21.00;91.80
23231;DHT22;11784;49.818;8.632;2023-09-19T03:23:25;21.00;91.70
23231;DHT22;11784;49.818;8.632;2023-09-19T03:25:51;21.00;91.80
23231;DHT22;11784;49.818;8.632;2023-09-19T03:28:18;21.00;91.80
23231;DHT22;11784;49.818;8.632;2023-09-19T03:30:43;21.00;91.80
23231;DHT22;11784;49.818;8.632;2023-09-19T03:33:09;21.00;91.90
23231;DHT22;11784;49.818;8.632;2023-09-19T03:35:37;20.90;91.80
23231;DHT22;11784;49.818;8.632;2023-09-19T03:38:03;20.90;91.80
23231;DHT22;11784;49.818;8.632;2023-09-19T03:40:29;20.90;91.90
23231;DHT22;11784;49.818;8.632;2023-09-19T03:42:55;20.80;92.00
23231;DHT22;11784;49.818;8.632;2023-09-19T03:45:21;20.80;92.00
23231;DHT22;11784;49.818;8.632;2023-09-19T03:47:46;20.80;92.10
23231;DHT22;11784;49.818;8.632;2023-09-19T03:50:15;20.80;92.20
23231;DHT22;11784;49.818;8.632;2023-09-19T03:52:43;20.80;92.10
23231;DHT22;11784;49.818;8.632;2023-09-19T03:55:09;20.80;92.10
23231;DHT22;11784;49.818;8.632;2023-09-19T03:57:35;20.80;92.20
23231;DHT22;11784;49.818;8.632;2023-09-19T04:00:02;20.70;92.10
23231;DHT22;11784;49.818;8.632;2023-09-19T04:02:27;20.80;92.10
23231;DHT22;11784;49.818;8.632;2023-09-19T04:04:58;20.80;92.10
23231;DHT22;11784;49.818;8.632;2023-09-19T04:07:24;20.80;92.10
23231;DHT22;11784;49.818;8.632;2023-09-19T04:09:51;20.80;92.10
23231;DHT22;11784;49.818;8.632;2023-09-19T04:12:18;20.80;92.10
23231;DHT22;11784;49.818;8.632;2023-09-19T04:14:44;20.80;92.00
23231;DHT22;11784;49.818;8.632;2023-09-19T04:17:10;20.80;92.00
23231;DHT22;11784;49.818;8.632;2023-09-19T04:19:36;20.70;92.00
23231;DHT22;11784;49.818;8.632;2023-09-19T04:22:02;20.80;92.00
23231;DHT22;11784;49.818;8.632;2023-09-19T04:24:28;20.70;92.00
23231;DHT22;11784;49.818;8.632;2023-09-19T04:26:54;20.70;92.00
23231;DHT22;11784;49.818;8.632;2023-09-19T04:29:19;20.70;91.90
23231;DHT22;11784;49.818;8.632;2023-09-19T04:31:45;20.70;91.80
23231;DHT22;11784;49.818;8.632;2023-09-19T04:34:11;20.70;91.90
23231;DHT22;11784;49.818;8.632;2023-09-19T04:36:43;20.70;91.80
23231;DHT22;11784;49.818;8.632;2023-09-19T04:39:09;20.60;91.90
23231;DHT22;11784;49.818;8.632;2023-09-19T04:41:37;20.60;92.00
23231;DHT22;11784;49.818;8.632;2023-09-19T04:44:05;20.60;92.00
23231;DHT22;11784;49.818;8.632;2023-09-19T04:46:30;20.60;92.00
23231;DHT22;11784;49.818;8.632;2023-09-19T04:48:56;20.60;91.80
23231;DHT22;11784;49.818;8.632;2023-09-19T04:51:22;20.60;91.90
23231;DHT22;11784;49.818;8.632;2023-09-19T04:53:48;20.60;92.00
23231;DHT22;11784;49.818;8.632;2023-09-19T04:56:13;20.60;91.90
23231;DHT22;11784;49.818;8.632;2023-09-19T04:58:39;20.60;91.90
23231;DHT22;11784;49.818;8.632;2023-09-19T05:01:04;20.60;91.80
23231;DHT22;11784;49.818;8.632;2023-09-19T05:03:30;20.60;91.60
23231;DHT22;11784;49.818;8.632;2023-09-19T05:05:56;20.60;91.70
23231;DHT22;11784;49.818;8.632;2023-09-19T05:08:21;20.50;91.40
23231;DHT22;11784;49.818;8.632;2023-09-19T05:10:48;20.60;91.40
23231;DHT22;11784;49.818;8.632;2023-09-19T05:13:14;20.50;91.30
23231;DHT22;11784;49.818;8.632;2023-09-19T05:15:40;20.60;91.10
23231;DHT22;11784;49.818;8.632;2023-09-19T05:18:06;20.50;91.10
23231;DHT22;11784;49.818;8.632;2023-09-19T05:20:32;20.50;91.00
23231;DHT22;11784;49.818;8.632;2023-09-19T05:23:06;20.50;90.90
23231;DHT22;11784;49.818;8.632;2023-09-19T05:25:38;20.50;90.80
23231;DHT22;11784;49.818;8.632;2023-09-19T05:28:08;20.50;90.60
23231;DHT22;11784;49.818;8.632;2023-09-19T05:30:35;20.50;90.60
23231;DHT22;11784;49.818;8.632;2023-09-19T05:33:04;20.50;90.60
23231;DHT22;11784;49.818;8.632;2023-09-19T05:35:30;20.50;90.40
23231;DHT22;11784;49.818;8.632;2023-09-19T05:37:56;20.50;90.40
23231;DHT22;11784;49.818;8.632;2023-09-19T05:40:23;20.40;90.50
23231;DHT22;11784;49.818;8.632;2023-09-19T05:42:49;20.50;90.30
23231;DHT22;11784;49.818;8.632;2023-09-19T05:45:16;20.40;90.20
23231;DHT22;11784;49.818;8.632;2023-09-19T05:47:51;20.40;90.10
23231;DHT22;11784;49.818;8.632;2023-09-19T05:50:17;20.40;90.20
23231;DHT22;11784;49.818;8.632;2023-09-19T05:52:47;20.40;90.00
23231;DHT22;11784;49.818;8.632;2023-09-19T05:55:17;20.40;89.60
23231;DHT22;11784;49.818;8.632;2023-09-19T05:57:43;20.40;89.80
23231;DHT22;11784;49.818;8.632;2023-09-19T06:00:09;20.30;89.70
23231;DHT22;11784;49.818;8.632;2023-09-19T06:02:36;20.40;89.80
23231;DHT22;11784;49.818;8.632;2023-09-19T06:05:04;20.30;89.80
23231;DHT22;11784;49.818;8.632;2023-09-19T06:07:31;20.30;89.30
23231;DHT22;11784;49.818;8.632;2023-09-19T06:10:03;20.30;89.80
23231;DHT22;11784;49.818;8.632;2023-09-19T06:12:31;20.30;89.20
23231;DHT22;11784;49.818;8.632;2023-09-19T06:14:58;20.30;89.20
23231;DHT22;11784;49.818;8.632;2023-09-19T06:17:24;20.30;88.90
23231;DHT22;11784;49.818;8.632;2023-09-19T06:19:53;20.30;88.80
23231;DHT22;11784;49.818;8.632;2023-09-19T06:22:18;20.40;88.60
23231;DHT22;11784;49.818;8.632;2023-09-19T06:24:45;20.40;88.20
23231;DHT22;11784;49.818;8.632;2023-09-19T06:27:12;20.30;87.70
23231;DHT22;11784;49.818;8.632;2023-09-19T06:29:38;20.30;88.20
23231;DHT22;11784;49.818;8.632;2023-09-19T06:32:08;20.30;87.80
23231;DHT22;11784;49.818;8.632;2023-09-19T06:34:34;20.30;87.70
23231;DHT22;11784;49.818;8.632;2023-09-19T06:37:00;20.30;87.90
23231;DHT22;11784;49.818;8.632;2023-09-19T06:39:25;20.30;88.10
23231;DHT22;11784;49.818;8.632;2023-09-19T06:41:51;20.40;87.60
23231;DHT22;11784;49.818;8.632;2023-09-19T06:44:19;20.30;87.70
23231;DHT22;11784;49.818;8.632;2023-09-19T06:46:47;20.30;87.50
23231;DHT22;11784;49.818;8.632;2023-09-19T06:49:17;20.30;87.40
23231;DHT22;11784;49.818;8.632;2023-09-19T06:51:42;20.30;87.80
23231;DHT22;11784;49.818;8.632;2023-09-19T06:54:12;20.30;87.10
23231;DHT22;11784;49.818;8.632;2023-09-19T06:56:38;20.30;87.20
23231;DHT22;11784;49.818;8.632;2023-09-19T06:59:03;20.30;87.30
23231;DHT22;11784;49.818;8.632;2023-09-19T07:01:31;20.30;87.60
23231;DHT22;11784;49.818;8.632;2023-09-19T07:03:57;20.30;87.50
23231;DHT22;11784;49.818;8.632;2023-09-19T07:06:23;20.40;86.90
23231;DHT22;11784;49.818;8.632;2023-09-19T07:08:50;20.40;86.10
23231;DHT22;11784;49.818;8.632;2023-09-19T07:11:16;20.40;86.10
23231;DHT22;11784;49.818;8.632;2023-09-19T07:13:42;20.40;86.40
23231;DHT22;11784;49.818;8.632;2023-09-19T07:16:07;20.40;86.20
23231;DHT22;11784;49.818;8.632;2023-09-19T07:18:35;20.50;86.60
23231;DHT22;11784;49.818;8.632;2023-09-19T07:21:02;20.50;86.00
23231;DHT22;11784;49.818;8.632;2023-09-19T07:23:30;20.50;85.60
23231;DHT22;11784;49.818;8.632;2023-09-19T07:26:00;20.50;85.50
23231;DHT22;11784;49.818;8.632;2023-09-19T07:28:26;20.50;84.70
23231;DHT22;11784;49.818;8.632;2023-09-19T07:30:53;20.60;84.90
23231;DHT22;11784;49.818;8.632;2023-09-19T07:33:19;20.60;84.70
23231;DHT22;11784;49.818;8.632;2023-09-19T07:35:48;20.60;83.30
23231;DHT22;11784;49.818;8.632;2023-09-19T07:38:13;20.60;82.50
23231;DHT22;11784;49.818;8.632;2023-09-19T07:40:39;20.60;83.00
23231;DHT22;11784;49.818;8.632;2023-09-19T07:43:05;20.50;82.40
23231;DHT22;11784;49.818;8.632;2023-09-19T07:45:32;20.60;82.50
23231;DHT22;11784;49.818;8.632;2023-09-19T07:47:58;20.60;82.30
23231;DHT22;11784;49.818;8.632;2023-09-19T07:50:26;20.60;81.10
23231;DHT22;11784;49.818;8.632;2023-09-19T07:52:52;20.60;81.10
23231;DHT22;11784;49.818;8.632;2023-09-19T07:55:19;20.60;80.90
23231;DHT22;11784;49.818;8.632;2023-09-19T07:57:48;20.60;80.60
23231;DHT22;11784;49.818;8.632;2023-09-19T08:00:15;20.60;80.50
23231;DHT22;11784;49.818;8.632;2023-09-19T08:02:43;20.60;80.30
23231;DHT22;11784;49.818;8.632;2023-09-19T08:05:10;20.70;79.10
23231;DHT22;11784;49.818;8.632;2023-09-19T08:07:37;20.70;78.50
23231;DHT22;11784;49.818;8.632;2023-09-19T08:10:04;20.80;77.40
23231;DHT22;11784;49.818;8.632;2023-09-19T08:12:36;20.70;77.60
23231;DHT22;11784;49.818;8.632;2023-09-19T08:15:04;20.70;77.10
23231;DHT22;11784;49.818;8.632;2023-09-19T08:17:34;20.70;76.10
23231;DHT22;11784;49.818;8.632;2023-09-19T08:20:00;20.70;76.60
23231;DHT22;11784;49.818;8.632;2023-09-19T08:22:28;20.60;77.10
23231;DHT22;11784;49.818;8.632;2023-09-19T08:24:54;20.70;78.10
23231;DHT22;11784;49.818;8.632;2023-09-19T08:27:19;20.70;77.00
23231;DHT22;11784;49.818;8.632;2023-09-19T08:29:45;20.70;76.90
23231;DHT22;11784;49.818;8.632;2023-09-19T08:32:11;20.70;76.70
23231;DHT22;11784;49.818;8.632;2023-09-19T08:34:37;20.70;77.20
23231;DHT22;11784;49.818;8.632;2023-09-19T08:37:04;20.70;75.80
23231;DHT22;11784;49.818;8.632;2023-09-19T08:39:30;20.70;74.80
23231;DHT22;11784;49.818;8.632;2023-09-19T08:42:00;20.70;75.20
23231;DHT22;11784;49.818;8.632;2023-09-19T08:44:27;20.60;74.50
23231;DHT22;11784;49.818;8.632;2023-09-19T08:47:01;20.70;73.30
23231;DHT22;11784;49.818;8.632;2023-09-19T08:49:47;20.70;73.50
23231;DHT22;11784;49.818;8.632;2023-09-19T08:52:32;20.70;73.80
23231;DHT22;11784;49.818;8.632;2023-09-19T08:55:02;20.70;72.80
23231;DHT22;11784;49.818;8.632;2023-09-19T08:57:33;20.70;74.00
23231;DHT22;11784;49.818;8.632;2023-09-19T09:00:02;20.80;72.90
23231;DHT22;11784;49.818;8.632;2023-09-19T09:02:31;20.90;72.90
23231;DHT22;11784;49.818;8.632;2023-09-19T09:04:57;20.90;72.50
23231;DHT22;11784;49.818;8.632;2023-09-19T09:07:24;21.00;71.00
23231;DHT22;11784;49.818;8.632;2023-09-19T09:09:50;21.00;70.20
23231;DHT22;11784;49.818;8.632;2023-09-19T09:12:16;21.00;70.20
23231;DHT22;11784;49.818;8.632;2023-09-19T09:14:45;21.00;69.60
23231;DHT22;11784;49.818;8.632;2023-09-19T09:17:14;21.10;69.10
23231;DHT22;11784;49.818;8.632;2023-09-19T09:19:39;21.10;69.50
23231;DHT22;11784;49.818;8.632;2023-09-19T09:22:10;21.00;66.30
23231;DHT22;11784;49.818;8.632;2023-09-19T09:24:37;21.00;67.10
23231;DHT22;11784;49.818;8.632;2023-09-19T09:27:05;21.00;67.00
23231;DHT22;11784;49.818;8.632;2023-09-19T09:32:19;21.00;65.90
23231;DHT22;11784;49.818;8.632;2023-09-19T09:34:47;21.00;66.30
23231;DHT22;11784;49.818;8.632;2023-09-19T09:37:15;21.00;67.00
23231;DHT22;11784;49.818;8.632;2023-09-19T09:39:52;21.10;66.60
23231;DHT22;11784;49.818;8.632;2023-09-19T09:42:38;21.10;67.10
23231;DHT22;11784;49.818;8.632;2023-09-19T09:47:46;21.20;65.40
23231;DHT22;11784;49.818;8.632;2023-09-19T09:50:32;21.20;65.90
23231;DHT22;11784;49.818;8.632;2023-09-19T09:53:29;21.30;63.30
23231;DHT22;11784;49.818;8.632;2023-09-19T09:56:10;21.30;63.70
23231;DHT22;11784;49.818;8.632;2023-09-19T09:58:50;21.40;63.70
23231;DHT22;11784;49.818;8.632;2023-09-19T10:01:17;21.40;62.50
23231;DHT22;11784;49.818;8.632;2023-09-19T10:03:43;21.40;63.20
23231;DHT22;11784;49.818;8.632;2023-09-19T10:06:14;21.50;63.00
23231;DHT22;11784;49.818;8.632;2023-09-19T10:12:07;21.50;62.20
23231;DHT22;11784;49.818;8.632;2023-09-19T10:14:38;21.50;63.30
23231;DHT22;11784;49.818;8.632;2023-09-19T10:17:09;21.60;63.20
23231;DHT22;11784;49.818;8.632;2023-09-19T10:19:54;21.50;62.50
23231;DHT22;11784;49.818;8.632;2023-09-19T10:22:23;21.50;62.20
23231;DHT22;11784;49.818;8.632;2023-09-19T10:24:55;21.50;62.70
23231;DHT22;11784;49.818;8.632;2023-09-19T10:27:26;21.50;61.10
23231;DHT22;11784;49.818;8.632;2023-09-19T10:29:52;21.50;60.90
23231;DHT22;11784;49.818;8.632;2023-09-19T10:32:22;21.50;60.30
23231;DHT22;11784;49.818;8.632;2023-09-19T10:34:49;21.40;60.80
23231;DHT22;11784;49.818;8.632;2023-09-19T10:37:20;21.50;61.80
23231;DHT22;11784;49.818;8.632;2023-09-19T10:39:48;21.50;60.20
23231;DHT22;11784;49.818;8.632;2023-09-19T10:42:19;21.60;60.10
23231;DHT22;11784;49.818;8.632;2023-09-19T10:44:45;21.60;58.20
23231;DHT22;11784;49.818;8.632;2023-09-19T10:47:13;21.60;57.70
23231;DHT22;11784;49.818;8.632;2023-09-19T10:49:46;21.60;57.70
23231;DHT22;11784;49.818;8.632;2023-09-19T10:52:13;21.60;58.50
23231;DHT22;11784;49.818;8.632;2023-09-19T10:54:46;21.70;58.40
23231;DHT22;11784;49.818;8.632;2023-09-19T10:57:20;21.70;58.50
23231;DHT22;11784;49.818;8.632;2023-09-19T11:00:03;21.70;58.00
23231;DHT22;11784;49.818;8.632;2023-09-19T11:05:37;21.60;58.70
23231;DHT22;11784;49.818;8.632;2023-09-19T11:08:07;21.60;58.60
23231;DHT22;11784;49.818;8.632;2023-09-19T11:10:51;21.60;59.30
23231;DHT22;11784;49.818;8.632;2023-09-19T11:13:28;21.70;60.20
23231;DHT22;11784;49.818;8.632;2023-09-19T11:26:45;21.80;57.10
23231;DHT22;11784;49.818;8.632;2023-09-19T11:29:26;21.80;58.50
23231;DHT22;11784;49.818;8.632;2023-09-19T11:31:52;21.80;57.80
23231;DHT22;11784;49.818;8.632;2023-09-19T11:40:24;22.00;58.20
23231;DHT22;11784;49.818;8.632;2023-09-19T11:42:45;22.10;59.00
23231;DHT22;11784;49.818;8.632;2023-09-19T11:48:23;22.20;58.40
23231;DHT22;11784;49.818;8.632;2023-09-19T11:50:50;22.20;57.40
23231;DHT22;11784;49.818;8.632;2023-09-19T11:53:17;22.20;58.20
23231;DHT22;11784;49.818;8.632;2023-09-19T11:55:45;22.30;58.00
23231;DHT22;11784;49.818;8.632;2023-09-19T11:58:12;22.30;56.80
23231;DHT22;11784;49.818;8.632;2023-09-19T12:00:39;22.40;56.70
23231;DHT22;11784;49.818;8.632;2023-09-19T12:03:10;22.40;56.50
23231;DHT22;11784;49.818;8.632;2023-09-19T12:05:47;22.50;55.10
23231;DHT22;11784;49.818;8.632;2023-09-19T12:08:15;22.50;55.10
23231;DHT22;11784;49.818;8.632;2023-09-19T12:10:50;22.50;56.00
23231;DHT22;11784;49.818;8.632;2023-09-19T12:13:17;22.40;55.80
23231;DHT22;11784;49.818;8.632;2023-09-19T12:15:44;22.40;55.70
23231;DHT22;11784;49.818;8.632;2023-09-19T12:18:25;22.40;55.70
23231;DHT22;11784;49.818;8.632;2023-09-19T12:20:51;22.50;55.00
23231;DHT22;11784;49.818;8.632;2023-09-19T12:23:17;22.50;54.40
23231;DHT22;11784;49.818;8.632;2023-09-19T12:25:43;22.50;54.80
23231;DHT22;11784;49.818;8.632;2023-09-19T12:28:16;22.50;54.00
23231;DHT22;11784;49.818;8.632;2023-09-19T12:30:42;22.60;55.30
23231;DHT22;11784;49.818;8.632;2023-09-19T12:33:18;22.60;54.80
23231;DHT22;11784;49.818;8.632;2023-09-19T12:35:51;22.70;54.70
23231;DHT22;11784;49.818;8.632;2023-09-19T12:38:28;22.80;55.00
23231;DHT22;11784;49.818;8.632;2023-09-19T12:40:57;22.90;53.90
23231;DHT22;11784;49.818;8.632;2023-09-19T12:43:26;22.90;53.20
23231;DHT22;11784;49.818;8.632;2023-09-19T12:45:52;23.00;53.40
23231;DHT22;11784;49.818;8.632;2023-09-19T12:48:26;23.00;53.60
23231;DHT22;11784;49.818;8.632;2023-09-19T12:51:08;23.10;53.80
23231;DHT22;11784;49.818;8.632;2023-09-19T12:53:41;23.10;53.40
23231;DHT22;11784;49.818;8.632;2023-09-19T12:56:13;23.20;53.10
23231;DHT22;11784;49.818;8.632;2023-09-19T12:58:58;23.30;53.70
23231;DHT22;11784;49.818;8.632;2023-09-19T13:01:28;23.40;53.20
23231;DHT22;11784;49.818;8.632;2023-09-19T13:04:17;23.50;52.70
23231;DHT22;11784;49.818;8.632;2023-09-19T13:06:46;23.70;54.20
23231;DHT22;11784;49.818;8.632;2023-09-19T13:09:14;23.80;52.70
23231;DHT22;11784;49.818;8.632;2023-09-19T13:11:40;24.00;52.00
23231;DHT22;11784;49.818;8.632;2023-09-19T13:14:16;24.20;51.70
23231;DHT22;11784;49.818;8.632;2023-09-19T13:17:06;24.30;50.20
23231;DHT22;11784;49.818;8.632;2023-09-19T13:19:50;24.40;50.10
23231;DHT22;11784;49.818;8.632;2023-09-19T13:22:40;24.40;50.00
23231;DHT22;11784;49.818;8.632;2023-09-19T13:25:08;24.50;51.40
23231;DHT22;11784;49.818;8.632;2023-09-19T13:27:39;24.60;49.50
23231;DHT22;11784;49.818;8.632;2023-09-19T13:30:05;24.70;49.90
23231;DHT22;11784;49.818;8.632;2023-09-19T13:32:32;24.90;49.60
23231;DHT22;11784;49.818;8.632;2023-09-19T13:34:58;25.20;48.60
23231;DHT22;11784;49.818;8.632;2023-09-19T13:37:24;25.40;48.60
23231;DHT22;11784;49.818;8.632;2023-09-19T13:39:49;25.70;48.10
23231;DHT22;11784;49.818;8.632;2023-09-19T13:42:15;25.90;47.30
23231;DHT22;11784;49.818;8.632;2023-09-19T13:44:42;26.20;46.50
23231;DHT22;11784;49.818;8.632;2023-09-19T13:47:07;26.50;46.60
23231;DHT22;11784;49.818;8.632;2023-09-19T13:49:35;26.80;46.10
23231;DHT22;11784;49.818;8.632;2023-09-19T13:52:01;27.20;46.20
23231;DHT22;11784;49.818;8.632;2023-09-19T13:54:30;27.70;46.60
23231;DHT22;11784;49.818;8.632;2023-09-19T13:56:56;28.10;45.80
23231;DHT22;11784;49.818;8.632;2023-09-19T13:59:21;28.60;44.00
23231;DHT22;11784;49.818;8.632;2023-09-19T14:01:49;29.00;42.10
23231;DHT22;11784;49.818;8.632;2023-09-19T14:04:15;29.20;40.80
23231;DHT22;11784;49.818;8.632;2023-09-19T14:06:42;29.40;40.90
23231;DHT22;11784;49.818;8.632;2023-09-19T14:09:08;29.50;40.00
23231;DHT22;11784;49.818;8.632;2023-09-19T14:11:33;29.50;40.30
23231;DHT22;11784;49.818;8.632;2023-09-19T14:13:59;29.40;40.00
23231;DHT22;11784;49.818;8.632;2023-09-19T14:16:25;29.30;40.80
23231;DHT22;11784;49.818;8.632;2023-09-19T14:18:55;29.30;41.50
23231;DHT22;11784;49.818;8.632;2023-09-19T14:21:21;29.10;41.20
23231;DHT22;11784;49.818;8.632;2023-09-19T14:23:46;28.90;41.20
23231;DHT22;11784;49.818;8.632;2023-09-19T14:26:12;28.60;41.70
23231;DHT22;11784;49.818;8.632;2023-09-19T14:28:37;28.10;42.10
23231;DHT22;11784;49.818;8.632;2023-09-19T14:31:11;27.60;43.30
23231;DHT22;11784;49.818;8.632;2023-09-19T14:33:37;27.20;44.40
23231;DHT22;11784;49.818;8.632;2023-09-19T14:36:08;26.90;44.90
23231;DHT22;11784;49.818;8.632;2023-09-19T14:38:35;26.80;45.50
23231;DHT22;11784;49.818;8.632;2023-09-19T14:41:02;26.50;45.80
23231;DHT22;11784;49.818;8.632;2023-09-19T14:43:28;26.30;46.30
23231;DHT22;11784;49.818;8.632;2023-09-19T14:46:07;26.10;46.60
23231;DHT22;11784;49.818;8.632;2023-09-19T14:48:34;25.90;47.40
23231;DHT22;11784;49.818;8.632;2023-09-19T14:51:17;25.80;48.00
23231;DHT22;11784;49.818;8.632;2023-09-19T14:53:44;25.70;48.00
23231;DHT22;11784;49.818;8.632;2023-09-19T14:56:11;25.80;48.00
23231;DHT22;11784;49.818;8.632;2023-09-19T14:58:37;25.80;48.10
23231;DHT22;11784;49.818;8.632;2023-09-19T15:03:31;25.80;48.00
23231;DHT22;11784;49.818;8.632;2023-09-19T15:06:01;25.80;48.00
23231;DHT22;11784;49.818;8.632;2023-09-19T15:08:27;25.80;48.90
23231;DHT22;11784;49.818;8.632;2023-09-19T15:10:52;25.80;48.80
23231;DHT22;11784;49.818;8.632;2023-09-19T15:13:19;25.90;48.30
23231;DHT22;11784;49.818;8.632;2023-09-19T15:15:44;26.00;48.40
23231;DHT22;11784;49.818;8.632;2023-09-19T15:18:12;26.20;47.90
23231;DHT22;11784;49.818;8.632;2023-09-19T15:20:43;26.70;47.40
23231;DHT22;11784;49.818;8.632;2023-09-19T15:23:09;27.30;46.40
23231;DHT22;11784;49.818;8.632;2023-09-19T15:25:35;28.00;45.40
23231;DHT22;11784;49.818;8.632;2023-09-19T15:28:00;28.80;45.00
23231;DHT22;11784;49.818;8.632;2023-09-19T15:30:37;29.70;43.60
23231;DHT22;11784;49.818;8.632;2023-09-19T15:33:03;30.70;42.30
23231;DHT22;11784;49.818;8.632;2023-09-19T15:35:28;31.60;40.10
23231;DHT22;11784;49.818;8.632;2023-09-19T15:37:54;32.10;38.10
23231;DHT22;11784;49.818;8.632;2023-09-19T15:40:21;32.50;38.60
23231;DHT22;11784;49.818;8.632;2023-09-19T15:42:49;32.70;36.80
23231;DHT22;11784;49.818;8.632;2023-09-19T15:45:15;32.80;36.70
23231;DHT22;11784;49.818;8.632;2023-09-19T15:47:42;32.60;37.00
23231;DHT22;11784;49.818;8.632;2023-09-19T15:50:08;32.60;36.30
23231;DHT22;11784;49.818;8.632;2023-09-19T15:52:41;32.60;36.70
23231;DHT22;11784;49.818;8.632;2023-09-19T15:55:07;32.50;36.40
23231;DHT22;11784;49.818;8.632;2023-09-19T15:57:33;32.10;36.30
23231;DHT22;11784;49.818;8.632;2023-09-19T15:59:59;31.50;37.20
23231;DHT22;11784;49.818;8.632;2023-09-19T16:02:25;30.90;38.00
23231;DHT22;11784;49.818;8.632;2023-09-19T16:04:51;30.20;39.30
23231;DHT22;11784;49.818;8.632;2023-09-19T16:07:17;29.80;40.20
23231;DHT22;11784;49.818;8.632;2023-09-19T16:09:44;29.30;41.10
23231;DHT22;11784;49.818;8.632;2023-09-19T16:12:09;28.80;41.90
23231;DHT22;11784;49.818;8.632;2023-09-19T16:14:36;28.40;43.00
23231;DHT22;11784;49.818;8.632;2023-09-19T16:17:03;27.90;43.90
23231;DHT22;11784;49.818;8.632;2023-09-19T16:19:28;27.60;44.80
23231;DHT22;11784;49.818;8.632;2023-09-19T16:21:54;27.40;44.90
23231;DHT22;11784;49.818;8.632;2023-09-19T16:24:21;27.20;45.70